Latest Weather Observations for McArthur River Mine

IDD60801

Issued at 11:05 pm CST Saturday 25 October 2014 (issued every 30 minutes, with the page automatically refreshed every 10 minutes)

About weather observations | Map of weather stations | Latest weather observations for NT | Other Formats
Station Details ID: 014704 Name: MCARTHUR RIVER MINE AIRPORT Lat: -16.44 Lon: 136.08 Height: 40.0 m
Data from the previous 72 hours. | See also: Recent months at McArthur River Mine
Date/Time
CST
Temp
°C
App
Temp
°C
Dew
Point
Rel
Hum
%
Delta-T
°C
Wind Press
QNH
hPa
Press
MSL
hPa
Rain
since 9 am
mm
Dir
 
Spd
km/h
Gust
km/h
Spd
kts
Gust
kts
25/11:00pm 26.7 29.1 21.5 73 3.5 NE 11 17 6 9 1015.1 - 0.0
25/10:30pm 27.3 29.2 20.6 67 4.4 NNE 11 17 6 9 1015.0 - 0.0
25/10:16pm 27.5 29.3 20.3 65 4.7 NE 11 17 6 9 1015.1 - 0.0
25/10:06pm 27.7 29.3 20.0 63 5.0 NE 11 20 6 11 1014.9 - 0.0
25/10:00pm 27.8 29.1 19.3 60 5.5 NE 11 19 6 10 1014.9 - 0.0
25/09:30pm 28.4 29.3 18.5 55 6.4 NNE 11 17 6 9 1014.7 - 0.0
25/09:00pm 28.7 28.7 17.2 49 7.2 NNE 13 20 7 11 1014.3 1014.0 0.0
25/08:53pm 28.8 28.8 17.3 49 7.3 NNE 13 20 7 11 1014.2 - 0.0
25/08:35pm 29.0 29.4 18.1 51 7.0 NNE 13 20 7 11 1014.0 - 0.0
25/08:30pm 29.0 29.5 18.4 52 6.8 NNE 13 19 7 10 1013.9 - 0.0
25/08:00pm 29.8 28.2 15.1 40 9.0 NE 17 28 9 15 1013.7 - 0.0
25/07:30pm 30.4 29.0 17.1 44 8.4 NNE 20 30 11 16 1013.4 - 0.0
25/07:00pm 31.1 30.4 17.4 44 8.7 NNE 17 32 9 17 1013.0 - 0.0
25/06:30pm 31.9 30.9 16.6 39 9.7 NNE 17 30 9 16 1012.7 - 0.0
25/06:00pm 33.2 31.7 15.2 33 11.2 NE 17 28 9 15 1012.3 1012.0 0.0
25/05:30pm 34.0 32.0 15.0 32 11.8 NNE 19 33 10 18 1011.9 - 0.0
25/05:00pm 34.6 33.0 15.0 31 12.2 NE 17 26 9 14 1011.7 - 0.0
25/04:30pm 35.0 32.9 15.3 30 12.3 NNE 20 32 11 17 1011.6 - 0.0
25/04:00pm 35.2 32.6 13.9 27 13.1 NE 20 28 11 15 1011.6 - 0.0
25/03:30pm 36.0 34.5 14.1 27 13.5 NE 15 20 8 11 1011.7 - 0.0
25/03:00pm 36.6 34.8 12.1 23 14.7 ENE 13 30 7 16 1011.9 1011.6 0.0
25/02:30pm 35.7 31.2 8.5 19 15.4 E 22 33 12 18 1012.3 - 0.0
25/02:00pm 35.7 32.3 7.7 18 15.7 ENE 15 35 8 19 1012.6 - 0.0
25/01:30pm 36.8 33.8 7.8 17 16.4 E 13 24 7 13 1013.0 - 0.0
25/01:00pm 36.0 31.7 8.0 18 15.8 ENE 20 28 11 15 1013.6 - 0.0
25/12:30pm 34.7 31.9 9.9 22 14.3 NE 15 26 8 14 1014.2 - 0.0
25/12:00pm 34.6 32.1 9.8 22 14.3 N 13 22 7 12 1014.7 1014.4 0.0
25/11:30am 34.7 32.4 10.5 23 14.1 NNE 13 24 7 13 1015.4 - 0.0
25/11:00am 33.0 29.6 9.1 23 13.5 NE 17 26 9 14 1015.7 - 0.0
25/10:30am 33.4 29.7 10.1 24 13.4 NNE 20 26 11 14 1016.0 - 0.0
25/10:00am 33.2 29.8 11.1 26 12.9 ENE 20 35 11 19 1016.2 - 0.0
25/09:30am 31.6 31.3 15.5 37 10.0 ENE 11 20 6 11 1016.3 - 0.0
25/09:00am 29.3 30.6 17.5 49 7.5 S 7 11 4 6 1016.0 1015.8 0.0
25/08:30am 28.0 30.0 20.0 61 5.2 SSW 9 17 5 9 1016.1 - 0.0
25/08:00am 25.9 29.0 22.2 80 2.5 SSW 9 13 5 7 1016.1 - 0.0
25/07:30am 23.8 27.8 23.1 96 0.5 SSW 7 11 4 6 1015.8 - 0.0
25/07:00am 21.5 - 21.7 - - SW 7 9 4 5 1015.5 - 0.0
25/06:30am 19.7 - 19.9 - - WSW 6 7 3 4 1015.1 - 0.0
25/06:07am 19.2 - 19.4 - - WSW 6 7 3 4 1014.8 - 0.0
25/06:00am 19.4 - 19.6 - - WSW 6 7 3 4 1014.7 1014.4 0.0
25/05:54am 19.6 - 19.8 - - WSW 6 7 3 4 1014.7 - 0.0
25/05:30am 20.0 - 20.2 - - W 6 7 3 4 1014.4 - 0.0
25/05:00am 20.1 22.5 20.1 100 0.0 SW 7 9 4 5 1014.2 - 0.0
25/04:30am 20.2 23.3 20.2 100 0.0 W 4 9 2 5 1014.0 - 0.0
25/04:00am 20.7 23.6 20.7 100 0.0 W 6 7 3 4 1013.6 - 0.0
25/03:30am 21.0 25.2 21.0 100 0.0 CALM 0 2 0 1 1013.6 - 0.0
25/03:00am 21.9 26.3 21.4 97 0.3 CALM 0 0 0 0 1013.5 1013.2 0.0
25/02:30am 22.6 26.1 21.9 96 0.5 SSE 6 7 3 4 1013.8 - 0.0
25/02:00am 23.1 27.8 21.9 93 0.8 CALM 0 0 0 0 1014.0 - 0.0
25/01:30am 24.0 28.9 22.3 90 1.1 CALM 0 0 0 0 1014.4 - 0.0
25/01:13am 24.0 28.5 21.5 86 1.7 CALM 0 0 0 0 1014.3 - 0.0
25/01:00am 24.5 28.6 22.2 87 1.5 N 4 7 2 4 1014.5 - 0.0
25/12:56am 24.5 28.1 22.0 86 1.7 N 6 7 3 4 1014.4 - 0.0
25/12:30am 24.8 28.3 21.9 84 1.9 NNE 6 9 3 5 1014.7 - 0.0
25/12:00am 25.6 29.2 22.3 82 2.2 N 7 11 4 6 1014.9 1014.6 0.0
 
Date/Time
CST
Temp
°C
App
Temp
°C
Dew
Point
Rel
Hum
%
Delta-T
°C
Wind Press
QNH
hPa
Press
MSL
hPa
Rain
since 9 am
mm
Dir
 
Spd
km/h
Gust
km/h
Spd
kts
Gust
kts
24/11:30pm 26.1 28.8 22.2 79 2.6 NNE 11 15 6 8 1015.2 - 0.0
24/11:00pm 26.4 28.7 22.0 77 2.9 NE 13 20 7 11 1015.4 - 0.0
24/10:30pm 26.7 27.9 22.1 76 3.1 NE 19 28 10 15 1015.4 - 0.0
24/10:00pm 27.1 28.6 21.2 70 3.9 NNE 15 22 8 12 1015.4 - 0.0
24/09:30pm 27.6 28.7 20.4 65 4.7 NE 15 26 8 14 1015.2 - 0.0
24/09:00pm 28.0 28.4 19.8 61 5.4 NNE 17 28 9 15 1014.6 1014.3 0.0
24/08:30pm 28.4 28.5 19.9 60 5.6 NNE 19 28 10 15 1014.2 - 0.0
24/08:00pm 29.4 29.2 18.5 52 7.0 NNE 17 24 9 13 1013.6 - 0.0
24/07:30pm 30.1 29.9 17.5 46 8.0 NNE 15 24 8 13 1013.0 - 0.0
24/07:00pm 30.6 30.1 17.7 46 8.2 NE 17 22 9 12 1012.5 - 0.0
24/06:58pm 30.6 30.1 17.7 46 8.2 NE 17 22 9 12 1012.5 - 0.0
24/06:45pm 30.9 30.7 17.6 45 8.5 NNE 15 24 8 13 1012.4 - 0.0
24/06:30pm 31.3 30.5 17.2 42 9.0 NE 17 24 9 13 1012.2 - 0.0
24/06:00pm 32.3 31.3 16.6 39 9.9 NNE 17 26 9 14 1011.7 1011.4 0.0
24/05:30pm 33.1 31.3 15.6 35 10.9 NE 19 28 10 15 1011.2 - 0.0
24/05:00pm 34.2 31.7 13.6 29 12.5 NE 19 28 10 15 1011.0 - 0.0
24/04:30pm 34.5 32.9 13.9 29 12.6 NE 15 20 8 11 1011.2 - 0.0
24/04:00pm 34.4 32.4 13.8 29 12.6 NE 17 26 9 14 1011.3 - 0.0
24/03:30pm 35.4 34.0 13.5 26 13.4 E 13 22 7 12 1011.4 - 0.0
24/03:00pm 34.6 31.9 13.4 28 12.9 NE 20 37 11 20 1011.6 1011.3 0.0
24/02:30pm 34.3 31.6 14.7 30 12.1 NE 22 32 12 17 1011.9 - 0.0
24/02:00pm 34.1 31.8 14.6 31 12.0 ENE 20 33 11 18 1012.2 - 0.0
24/01:30pm 35.3 32.2 11.7 24 14.0 NE 19 32 10 17 1012.7 - 0.0
24/01:00pm 34.5 32.0 12.2 26 13.3 NE 17 28 9 15 1013.3 - 0.0
24/12:30pm 35.8 32.3 10.8 22 14.7 E 20 32 11 17 1013.8 - 0.0
24/12:00pm 35.4 33.3 11.1 23 14.3 ENE 13 15 7 8 1014.3 1014.0 0.0
24/11:30am 35.6 32.2 11.3 23 14.4 ENE 20 33 11 18 1014.7 - 0.0
24/11:00am 35.4 32.0 11.1 23 14.3 E 20 32 11 17 1015.0 - 0.0
24/10:30am 34.8 31.4 11.2 24 13.9 ENE 20 33 11 18 1015.1 - 0.0
24/10:00am 33.8 32.4 13.3 29 12.4 ENE 13 22 7 12 1015.3 - 0.0
24/09:30am 31.3 32.8 17.6 44 8.8 W 6 13 3 7 1015.3 - 0.0
24/09:00am 29.4 31.5 19.4 55 6.5 SSW 7 11 4 6 1015.4 1015.1 0.0
24/08:30am 27.8 30.1 20.6 65 4.8 SSW 9 13 5 7 1015.4 - 0.0
24/08:00am 26.5 30.1 23.0 81 2.4 SSW 9 13 5 7 1015.3 - 0.0
24/07:30am 24.5 28.3 22.7 90 1.2 S 7 11 4 6 1015.1 - 0.0
24/07:00am 22.1 26.5 22.1 100 0.0 W 2 6 1 3 1014.9 - 0.0
24/06:33am 20.8 24.5 20.8 100 0.0 WSW 2 7 1 4 1014.7 - 0.0
24/06:30am 20.7 24.4 20.7 100 0.0 WSW 2 7 1 4 1014.7 - 0.0
24/06:14am 20.5 24.5 20.5 100 0.0 CALM 0 0 0 0 1014.6 - 0.0
24/06:09am 20.4 24.3 20.4 100 0.0 CALM 0 0 0 0 1014.6 - 0.0
24/06:00am 20.3 24.2 20.3 100 0.0 CALM 0 0 0 0 1014.5 1014.2 0.0
24/05:59am 20.3 24.2 20.3 100 0.0 CALM 0 0 0 0 1014.5 - 0.0
24/05:37am 20.6 24.6 20.6 100 0.0 CALM 0 0 0 0 1014.2 - 0.0
24/05:30am 20.7 24.8 20.7 100 0.0 CALM 0 0 0 0 1014.1 - 0.0
24/05:06am 20.8 24.9 20.8 100 0.0 CALM 0 0 0 0 1013.8 - 0.0
24/05:00am 20.8 24.9 20.8 100 0.0 CALM 0 0 0 0 1013.7 - 0.0
24/04:50am 20.8 24.1 20.8 100 0.0 W 4 7 2 4 1013.6 - 0.0
24/04:31am 21.0 24.4 21.0 100 0.0 WNW 4 6 2 3 1013.5 - 0.0
24/04:30am 21.0 24.4 21.0 100 0.0 WNW 4 6 2 3 1013.5 - 0.0
24/04:07am 21.1 25.0 20.4 96 0.5 CALM 0 4 0 2 1013.3 - 0.0
24/04:00am 21.4 25.4 20.6 95 0.5 CALM 0 6 0 3 1013.3 - 0.0
24/03:47am 21.7 26.0 21.2 97 0.3 CALM 0 0 0 0 1013.2 - 0.0
24/03:30am 21.9 26.3 21.4 97 0.3 CALM 0 0 0 0 1013.2 - 0.0
24/03:00am 22.7 27.0 22.0 96 0.5 SE 2 7 1 4 1013.3 1013.0 0.0
24/02:33am 23.4 27.6 22.4 94 0.7 SSW 4 6 2 3 1013.5 - 0.0
24/02:30am 23.4 27.6 22.4 94 0.7 SSW 4 6 2 3 1013.5 - 0.0
24/02:14am 23.3 27.1 21.7 91 1.1 WSW 4 7 2 4 1013.7 - 0.0
24/02:00am 23.5 28.1 21.8 90 1.1 CALM 0 0 0 0 1013.9 - 0.0
24/01:30am 24.1 29.0 22.4 90 1.1 CALM 0 0 0 0 1014.3 - 0.0
24/01:00am 24.5 29.1 21.8 85 1.8 CALM 0 6 0 3 1014.6 - 0.0
24/12:30am 25.1 29.1 22.0 83 2.1 N 4 6 2 3 1014.8 - 0.0
24/12:00am 25.5 28.8 21.8 80 2.5 NNE 7 11 4 6 1015.0 1014.7 0.0
 
Date/Time
CST
Temp
°C
App
Temp
°C
Dew
Point
Rel
Hum
%
Delta-T
°C
Wind Press
QNH
hPa
Press
MSL
hPa
Rain
since 9 am
mm
Dir
 
Spd
km/h
Gust
km/h
Spd
kts
Gust
kts
23/11:30pm 25.9 29.1 21.6 77 2.9 NNE 7 11 4 6 1015.0 - 0.0
23/11:00pm 26.2 28.8 21.2 74 3.3 NNE 9 13 5 7 1015.0 - 0.0
23/10:30pm 26.5 28.6 21.0 72 3.6 NE 11 15 6 8 1015.1 - 0.0
23/10:00pm 26.7 28.7 21.5 73 3.5 NE 13 24 7 13 1015.1 - 0.0
23/09:30pm 27.1 28.3 22.1 74 3.4 NE 19 24 10 13 1014.7 - 0.0
23/09:00pm 27.5 28.9 21.8 71 3.8 NE 17 26 9 14 1014.3 1014.0 0.0
23/08:30pm 28.0 29.2 21.5 67 4.3 NE 17 26 9 14 1013.9 - 0.0
23/08:00pm 28.6 29.4 21.4 65 4.8 NE 19 26 10 14 1013.5 - 0.0
23/07:54pm 28.7 30.2 21.2 64 5.0 NE 15 24 8 13 1013.4 - 0.0
23/07:37pm 29.1 29.8 20.5 59 5.7 NE 17 24 9 13 1013.2 - 0.0
23/07:30pm 29.2 29.7 20.1 58 6.0 NE 17 26 9 14 1013.0 - 0.0
23/07:00pm 29.8 29.7 19.5 54 6.7 NE 19 30 10 16 1012.6 - 0.0
23/06:30pm 30.5 29.9 18.9 50 7.5 NE 20 30 11 16 1012.3 - 0.0
23/06:00pm 31.7 30.8 18.3 45 8.7 NE 20 35 11 19 1011.8 1011.5 0.0
23/05:30pm 32.8 31.4 17.0 38 10.1 NE 20 30 11 16 1011.2 - 0.0
23/05:00pm 34.0 32.4 16.4 35 11.2 NE 20 32 11 17 1010.8 - 0.0
23/04:30pm 34.5 32.3 14.9 31 12.2 NE 20 33 11 18 1010.6 - 0.0
23/04:00pm 35.7 33.7 15.4 29 12.8 ENE 20 35 11 19 1010.5 - 0.0
23/03:30pm 35.5 32.3 14.2 28 13.2 NE 24 35 13 19 1010.6 - 0.0
23/03:00pm 36.4 34.1 10.6 21 15.2 NE 13 26 7 14 1010.8 1010.5 0.0
23/02:30pm 35.4 32.3 10.4 22 14.6 ENE 17 26 9 14 1011.0 - 0.0
23/02:00pm 36.5 32.5 8.4 18 16.0 ENE 19 30 10 16 1011.6 - 0.0
23/01:30pm 37.0 32.4 9.6 19 15.9 ESE 24 35 13 19 1012.2 - 0.0
23/01:00pm 36.4 35.1 11.3 22 14.9 NE 9 13 5 7 1012.5 - 0.0
23/12:30pm 36.0 32.9 12.2 23 14.3 NE 20 30 11 16 1013.0 - 0.0
23/12:00pm 35.2 31.5 12.8 26 13.5 ENE 24 41 13 22 1013.4 1013.1 0.0
23/11:30am 36.3 31.3 4.6 14 17.0 NE 20 30 11 16 1013.8 - 0.0
23/11:00am 35.6 32.4 8.4 19 15.4 E 15 30 8 16 1014.2 - 0.0
23/10:30am 33.5 33.2 14.5 31 11.7 ESE 9 22 5 12 1014.7 - 0.0
23/10:00am 33.0 34.1 18.0 41 9.7 E 9 15 5 8 1015.1 - 0.0
23/09:30am 30.3 33.1 20.5 55 6.5 NE 6 9 3 5 1015.4 - 0.0
23/09:00am 28.6 31.0 20.9 63 5.1 S 9 15 5 8 1015.6 1015.3 0.0
23/08:30am 27.4 31.3 23.0 77 3.0 SSW 7 11 4 6 1015.6 - 0.0
23/08:00am 26.2 30.4 24.1 88 1.4 SW 9 13 5 7 1015.4 - 0.0
23/07:30am 25.1 30.2 24.9 99 0.1 SW 7 9 4 5 1015.0 - 0.0
23/07:00am 23.9 28.4 23.9 100 0.0 SSW 7 9 4 5 1014.7 - 0.0
23/06:30am 22.5 - 22.7 - - CALM 0 6 0 3 1014.3 - 0.0
23/06:17am 22.2 - 22.4 - - S 7 9 4 5 1014.2 - 0.0
23/06:00am 21.9 - 22.1 - - WSW 2 7 1 4 1014.0 1013.7 0.0
23/05:51am 21.5 25.6 21.5 100 0.0 W 2 7 1 4 1013.9 - 0.0
23/05:30am 22.0 - 22.2 - - CALM 0 0 0 0 1013.5 - 0.0
23/05:00am 22.3 26.8 22.3 100 0.0 W 2 7 1 4 1013.3 - 0.0
23/04:30am 22.7 26.7 22.7 100 0.0 WSW 6 6 3 3 1013.2 - 0.0
23/04:22am 23.1 28.0 23.1 100 0.0 SSE 2 6 1 3 1013.2 - 0.0
23/04:04am 23.3 28.7 23.3 100 0.0 CALM 0 0 0 0 1013.2 - 0.0
23/04:00am 23.4 28.9 23.4 100 0.0 CALM 0 0 0 0 1013.2 - 0.0
23/03:48am 23.5 29.1 23.5 100 0.0 CALM 0 0 0 0 1013.2 - 0.0
23/03:33am 23.6 29.2 23.6 100 0.0 CALM 0 0 0 0 1013.3 - 0.0
23/03:30am 23.5 29.1 23.5 100 0.0 CALM 0 0 0 0 1013.3 - 0.0
23/03:00am 23.6 29.2 23.6 100 0.0 CALM 0 0 0 0 1013.3 1013.0 0.0
23/02:30am 24.3 29.6 24.3 100 0.0 E 4 7 2 4 1013.5 - 0.0
23/02:00am 24.4 29.3 24.4 100 0.0 NNE 6 7 3 4 1013.6 - 0.0
23/01:30am 24.9 30.2 24.4 97 0.3 N 4 7 2 4 1013.8 - 0.0
23/01:00am 25.3 30.2 24.4 95 0.6 NNE 6 9 3 5 1014.2 - 0.0
23/12:41am 25.6 30.0 24.4 93 0.8 NNE 9 15 5 8 1014.3 - 0.0
23/12:30am 25.6 29.5 24.2 92 1.0 NNE 11 17 6 9 1014.4 - 0.0
23/12:00am 25.8 29.6 24.0 90 1.2 NE 11 19 6 10 1014.8 1014.5 0.0
 
Date/Time
CST
Temp
°C
App
Temp
°C
Dew
Point
Rel
Hum
%
Delta-T
°C
Wind Press
QNH
hPa
Press
MSL
hPa
Rain
since 9 am
mm
Dir
 
Spd
km/h
Gust
km/h
Spd
kts
Gust
kts
22/11:36pm 26.1 29.7 24.3 90 1.2 NE 13 20 7 11 1015.0 - 0.0
22/11:30pm 26.2 29.7 24.2 89 1.4 NE 13 19 7 10 1015.1 - 0.0
22/11:18pm 26.3 29.8 24.2 88 1.4 NNE 13 17 7 9 1015.3 - 0.0

Other Formats:

Comma delimited format used in spreadsheet applications
http://www.bom.gov.au/fwo/IDD60801/IDD60801.94239.axf

JavaScript Object Notation format (JSON) in row-major order
http://www.bom.gov.au/fwo/IDD60801/IDD60801.94239.json